Jeffrey G Stover — WDI4806 — position and weather

sailwx.info

Track history (hours):
 
Tides and Currents Weather Stations Pressure Air Temp Water Temp Dewpoint Dewpoint Depression Visibility Wind Speed Wind Dir Waves Ship Positions

Jeffrey G Stover

Owner: ACBL River Operations LLC, Jeffersonville, IN. More information available from US FCC via Universal Licensing System and Coast Guard Vessel Documentation Center.

Last reported at 2018-Apr-26 04:46 UTC. Time now 2018-May-22 21:18 UTC.
Position N 32°44' W 091°08'.
Warning: this ship's position is 26 days out of date.

Length 56 m; draft 3.1 m.

Type: Towing. MMSI: 367702190.

Date/timePositionNaut miles runAvg speedWind from/ knotsBaromVisibWave heightAir tempDewpointWater temp
2018-Apr-26 04:46N 32°44' W 091°08'4 4.7
2018-Apr-26 03:56N 32°44' W 091°04'4 3.2
2018-Apr-26 02:47N 32°41' W 091°06'2 3.8
2018-Apr-26 02:14N 32°39' W 091°07'2 4.4
2018-Apr-26 01:45N 32°37' W 091°09'0 1.6
2018-Apr-26 01:30N 32°37' W 091°09'2 3.8
2018-Apr-26 01:00N 32°35' W 091°07'2 4.5
2018-Apr-26 00:30N 32°33' W 091°06'3 5.1
2018-Apr-25 23:59N 32°31' W 091°07'2 4.7
2018-Apr-25 23:30N 32°28' W 091°06'2 3.9
2018-Apr-25 23:00N 32°27' W 091°05'2 4.3
2018-Apr-25 22:30N 32°26' W 091°02'3 5.2
2018-Apr-25 22:00N 32°25' W 090°60'3 5.0
2018-Apr-25 21:30N 32°22' W 091°00'2 4.0
2018-Apr-25 21:00N 32°21' W 090°59'1 2.6
2018-Apr-25 20:30N 32°21' W 090°57'0 0.0
2018-Apr-25 20:00N 32°21' W 090°57'0 0.0
2018-Apr-25 19:30N 32°21' W 090°57'0 0.0
2018-Apr-25 19:00N 32°21' W 090°57'0 0.0
2018-Apr-25 18:30N 32°21' W 090°57'0 0.0
2018-Apr-25 18:00N 32°21' W 090°57'0 0.0
2018-Apr-25 17:29N 32°21' W 090°57'2 4.2
2018-Apr-25 17:00N 32°20' W 090°55'2 3.4
2018-Apr-25 16:30N 32°19' W 090°55'2 4.1
2018-Apr-25 16:00N 32°17' W 090°57'2 4.7
2018-Apr-25 15:30N 32°15' W 090°58'3 5.4
2018-Apr-25 15:00N 32°12' W 090°59'2 4.5
2018-Apr-25 14:30N 32°10' W 090°60'2 4.9
2018-Apr-25 14:00N 32°08' W 091°00'2 4.3
2018-Apr-25 13:30N 32°07' W 091°03'2 4.3
2018-Apr-25 13:00N 32°08' W 091°05'2 4.4
2018-Apr-25 12:30N 32°05' W 091°05'3 5.2
2018-Apr-25 12:00N 32°03' W 091°04'2 4.8
2018-Apr-25 11:30N 32°01' W 091°05'2 4.3
2018-Apr-25 10:57N 31°59' W 091°07'3 4.6
2018-Apr-25 10:18N 31°59' W 091°10'1 4.2
2018-Apr-25 10:00N 31°58' W 091°11'  
2018-Apr-20 17:03N 31°60' W 091°06'1 9.6
2018-Apr-20 16:59N 32°00' W 091°05'4 8.8
2018-Apr-20 16:30N 32°04' W 091°04'4 7.5
2018-Apr-20 16:00N 32°07' W 091°06'4 8.6
2018-Apr-20 15:30N 32°08' W 091°01'5 9.2
2018-Apr-20 15:00N 32°12' W 090°60'4 8.7
2018-Apr-20 14:30N 32°16' W 090°58'510.0
2018-Apr-20 14:00N 32°20' W 090°54'4 8.3
2018-Apr-20 13:30N 32°21' W 090°59'4 7.4
2018-Apr-20 13:00N 32°25' W 090°60'5 9.1
2018-Apr-20 12:30N 32°27' W 091°05'5 8.2
2018-Apr-20 11:56N 32°31' W 091°06'4 8.5
2018-Apr-20 11:30N 32°35' W 091°07'  
Track history (hours):
 
Tides and Currents Weather Stations Pressure Air Temp Water Temp Dewpoint Dewpoint Depression Visibility Wind Speed Wind Dir Waves Ship Positions

Jeffrey G Stover

Owner: ACBL River Operations LLC, Jeffersonville, IN. More information available from US FCC via Universal Licensing System and Coast Guard Vessel Documentation Center.

Last reported at 2018-Apr-26 04:46 UTC. Time now 2018-May-22 21:18 UTC.
Position N 32°44' W 091°08'.
Warning: this ship's position is 26 days out of date.

Length 56 m; draft 3.1 m.

Type: Towing. MMSI: 367702190.

Date/timePositionNaut miles runAvg speedWind from/ knotsBaromVisibWave heightAir tempDewpointWater temp
2018-Apr-26 04:46N 32°44' W 091°08'4 4.7
2018-Apr-26 03:56N 32°44' W 091°04'4 3.2
2018-Apr-26 02:47N 32°41' W 091°06'2 3.8
2018-Apr-26 02:14N 32°39' W 091°07'2 4.4
2018-Apr-26 01:45N 32°37' W 091°09'0 1.6
2018-Apr-26 01:30N 32°37' W 091°09'2 3.8
2018-Apr-26 01:00N 32°35' W 091°07'2 4.5
2018-Apr-26 00:30N 32°33' W 091°06'3 5.1
2018-Apr-25 23:59N 32°31' W 091°07'2 4.7
2018-Apr-25 23:30N 32°28' W 091°06'2 3.9
2018-Apr-25 23:00N 32°27' W 091°05'2 4.3
2018-Apr-25 22:30N 32°26' W 091°02'3 5.2
2018-Apr-25 22:00N 32°25' W 090°60'3 5.0
2018-Apr-25 21:30N 32°22' W 091°00'2 4.0
2018-Apr-25 21:00N 32°21' W 090°59'1 2.6
2018-Apr-25 20:30N 32°21' W 090°57'0 0.0
2018-Apr-25 20:00N 32°21' W 090°57'0 0.0
2018-Apr-25 19:30N 32°21' W 090°57'0 0.0
2018-Apr-25 19:00N 32°21' W 090°57'0 0.0
2018-Apr-25 18:30N 32°21' W 090°57'0 0.0
2018-Apr-25 18:00N 32°21' W 090°57'0 0.0
2018-Apr-25 17:29N 32°21' W 090°57'2 4.2
2018-Apr-25 17:00N 32°20' W 090°55'2 3.4
2018-Apr-25 16:30N 32°19' W 090°55'2 4.1
2018-Apr-25 16:00N 32°17' W 090°57'2 4.7
2018-Apr-25 15:30N 32°15' W 090°58'3 5.4
2018-Apr-25 15:00N 32°12' W 090°59'2 4.5
2018-Apr-25 14:30N 32°10' W 090°60'2 4.9
2018-Apr-25 14:00N 32°08' W 091°00'2 4.3
2018-Apr-25 13:30N 32°07' W 091°03'2 4.3
2018-Apr-25 13:00N 32°08' W 091°05'2 4.4
2018-Apr-25 12:30N 32°05' W 091°05'3 5.2
2018-Apr-25 12:00N 32°03' W 091°04'2 4.8
2018-Apr-25 11:30N 32°01' W 091°05'2 4.3
2018-Apr-25 10:57N 31°59' W 091°07'3 4.6
2018-Apr-25 10:18N 31°59' W 091°10'1 4.2
2018-Apr-25 10:00N 31°58' W 091°11'  
2018-Apr-20 17:03N 31°60' W 091°06'1 9.6
2018-Apr-20 16:59N 32°00' W 091°05'4 8.8
2018-Apr-20 16:30N 32°04' W 091°04'4 7.5
2018-Apr-20 16:00N 32°07' W 091°06'4 8.6
2018-Apr-20 15:30N 32°08' W 091°01'5 9.2
2018-Apr-20 15:00N 32°12' W 090°60'4 8.7
2018-Apr-20 14:30N 32°16' W 090°58'510.0
2018-Apr-20 14:00N 32°20' W 090°54'4 8.3
2018-Apr-20 13:30N 32°21' W 090°59'4 7.4
2018-Apr-20 13:00N 32°25' W 090°60'5 9.1
2018-Apr-20 12:30N 32°27' W 091°05'5 8.2
2018-Apr-20 11:56N 32°31' W 091°06'4 8.5
2018-Apr-20 11:30N 32°35' W 091°07'  

Dump ship's entire track history